Time;durP1;ratioP1;P1;durP2;ratioP2;P2;SDS_P1;SDS_P2;PMS_P1;PMS_P2;Temp;Humidity;BMP_temperature;BMP_pressure;BME280_temperature;BME280_humidity;BME280_pressure;Samples;Min_cycle;Max_cycle;Signal;HPM_P1;HPM_P2
2023/06/04 00:00:10;;;;;;;3.80;1.05;;;;;;;12.31;41.99;98118.47;10486606;28;20119;-70
2023/06/04 00:05:51;;;;;;;1.95;0.80;;;;;;;12.28;41.99;98114.06;10488217;28;20067;-70
2023/06/04 00:11:12;;;;;;;3.42;0.80;;;;;;;12.23;42.21;98105.97;10486086;28;20501;-70
2023/06/04 00:16:35;;;;;;;2.28;0.88;;;;;;;12.19;42.28;98106.47;10471986;28;20513;-70
2023/06/04 00:21:56;;;;;;;1.95;0.68;;;;;;;12.13;42.69;98097.66;10485282;28;20128;-70
2023/06/04 00:27:16;;;;;;;2.10;0.85;;;;;;;12.11;42.74;98097.50;10471502;28;20176;-70
2023/06/04 00:32:37;;;;;;;1.90;0.70;;;;;;;12.06;43.06;98092.22;10485060;28;20476;-70
2023/06/04 00:37:58;;;;;;;2.47;0.70;;;;;;;11.97;43.05;98096.56;10485025;28;20123;-70
2023/06/04 00:43:19;;;;;;;7.78;0.98;;;;;;;11.86;43.71;98086.00;10471387;28;20119;-70
2023/06/04 00:48:42;;;;;;;3.67;0.90;;;;;;;11.82;43.60;98082.94;10470461;28;20452;-70
2023/06/04 00:54:08;;;;;;;3.75;0.95;;;;;;;11.79;43.49;98084.84;10484915;28;20116;-70
2023/06/04 00:59:32;;;;;;;2.70;0.95;;;;;;;11.70;44.29;98077.25;10470933;28;20079;-70
2023/06/04 01:05:04;;;;;;;2.72;0.90;;;;;;;11.69;44.32;98078.56;10470467;28;20074;-70
2023/06/04 01:10:25;;;;;;;2.03;0.77;;;;;;;11.64;44.30;98083.13;10470197;28;20075;-70
2023/06/04 01:15:46;;;;;;;3.35;1.00;;;;;;;11.60;44.51;98077.28;10468828;28;20154;-70
2023/06/04 01:21:08;;;;;;;2.38;1.00;;;;;;;11.53;44.92;98069.06;10497631;28;20171;-70
2023/06/04 01:26:29;;;;;;;3.35;0.75;;;;;;;11.41;44.81;98072.50;10469217;28;20060;-70
2023/06/04 01:31:51;;;;;;;1.77;0.90;;;;;;;11.33;45.20;98071.91;10497248;28;20581;-70
2023/06/04 01:37:13;;;;;;;3.15;0.95;;;;;;;11.26;45.35;98074.88;10483102;28;20106;-70
2023/06/04 01:42:34;;;;;;;1.65;0.77;;;;;;;11.21;45.72;98064.75;10469262;28;20462;-70
2023/06/04 01:47:56;;;;;;;1.95;0.60;;;;;;;11.21;45.70;98064.75;10455331;28;20482;-70
2023/06/04 01:53:17;;;;;;;3.70;1.15;;;;;;;11.16;46.13;98058.13;10468864;28;20584;-70
2023/06/04 01:58:38;;;;;;;3.40;0.82;;;;;;;11.10;46.13;98058.47;10482884;28;20058;-70
2023/06/04 02:03:59;;;;;;;2.30;0.70;;;;;;;11.03;46.19;98050.97;10497361;28;20147;-71
2023/06/04 02:09:20;;;;;;;2.63;0.77;;;;;;;11.01;46.54;98064.81;10482319;28;20079;-70
2023/06/04 02:14:42;;;;;;;2.78;0.95;;;;;;;10.96;46.55;98056.72;10482339;28;20060;-70
2023/06/04 02:20:04;;;;;;;2.63;0.90;;;;;;;10.90;46.69;98068.19;10482173;28;20501;-70
2023/06/04 02:25:25;;;;;;;1.95;0.80;;;;;;;10.85;46.90;98075.53;10482175;28;20456;-70
2023/06/04 02:30:46;;;;;;;2.83;0.70;;;;;;;10.78;47.66;98076.44;10503296;28;20124;-70
2023/06/04 02:36:08;;;;;;;3.92;0.90;;;;;;;10.65;47.40;98081.72;10475839;28;20048;-70
2023/06/04 02:41:29;;;;;;;2.80;0.95;;;;;;;10.54;47.81;98077.47;10489897;28;20170;-70
2023/06/04 02:46:50;;;;;;;2.58;1.00;;;;;;;10.52;47.86;98080.84;10475672;28;20120;-70
2023/06/04 02:52:11;;;;;;;3.13;0.70;;;;;;;10.49;47.78;98073.63;10475138;28;20140;-69
2023/06/04 02:57:31;;;;;;;3.17;0.80;;;;;;;10.45;47.92;98090.09;10488924;28;20249;-70
2023/06/04 03:02:52;;;;;;;3.00;1.00;;;;;;;10.42;48.35;98087.72;10474715;28;20083;-70
2023/06/04 03:08:13;;;;;;;2.53;0.75;;;;;;;10.37;48.17;98094.34;10488384;28;20095;-70
2023/06/04 03:13:33;;;;;;;5.55;1.42;;;;;;;10.40;48.50;98095.97;10488385;28;20116;-70
2023/06/04 03:18:54;;;;;;;1.67;0.65;;;;;;;10.47;48.89;98109.78;10473989;28;20437;-70
2023/06/04 03:24:15;;;;;;;2.63;0.73;;;;;;;10.49;49.00;98109.94;10487932;28;20455;-70
2023/06/04 03:29:36;;;;;;;2.33;0.77;;;;;;;10.55;48.79;98110.38;10473599;28;20135;-70
2023/06/04 03:35:00;;;;;;;3.00;0.88;;;;;;;10.62;49.19;98124.78;10473705;28;20068;-70
2023/06/04 03:40:20;;;;;;;3.08;0.88;;;;;;;10.73;49.15;98115.84;10486409;28;20158;-70
2023/06/04 03:45:42;;;;;;;2.35;0.88;;;;;;;10.83;49.18;98116.56;10473062;28;20124;-70
2023/06/04 03:51:04;;;;;;;3.45;0.82;;;;;;;10.91;49.31;98125.53;10473181;28;20042;-70
2023/06/04 03:56:27;;;;;;;2.38;0.90;;;;;;;11.06;48.97;98128.00;10486429;28;20072;-70
2023/06/04 04:01:49;;;;;;;1.88;0.80;;;;;;;11.20;48.49;98133.16;10472704;28;20171;-70
2023/06/04 04:07:10;;;;;;;2.20;0.85;;;;;;;11.28;48.48;98125.31;10486151;28;20064;-70
2023/06/04 04:12:31;;;;;;;3.10;1.00;;;;;;;11.46;48.32;98121.00;10485825;28;20516;-70
2023/06/04 04:17:52;;;;;;;2.15;0.98;;;;;;;11.61;48.37;98123.47;10485998;28;20127;-70
2023/06/04 04:23:13;;;;;;;3.67;0.70;;;;;;;11.87;47.95;98124.59;10471529;28;20120;-70
2023/06/04 04:28:38;;;;;;;3.22;0.85;;;;;;;12.12;47.41;98121.38;10471555;28;20510;-70
2023/06/04 04:34:00;;;;;;;6.65;1.00;;;;;;;12.25;47.13;98120.84;10471409;28;20072;-70
2023/06/04 04:39:22;;;;;;;2.47;0.90;;;;;;;12.47;46.82;98132.06;10484817;28;20051;-70
2023/06/04 04:44:48;;;;;;;2.22;0.90;;;;;;;12.56;46.16;98122.88;10471347;28;20112;-70
2023/06/04 04:50:09;;;;;;;2.97;1.20;;;;;;;12.87;45.49;98131.91;10471443;28;20456;-70
2023/06/04 04:55:30;;;;;;;4.25;1.20;;;;;;;13.16;45.63;98122.53;10485019;28;20090;-69
2023/06/04 05:00:51;;;;;;;2.83;0.80;;;;;;;13.50;44.62;98128.84;10484779;28;20048;-70
2023/06/04 05:06:13;;;;;;;4.43;1.00;;;;;;;13.68;43.13;98135.56;10484308;28;20053;-70
2023/06/04 05:11:34;;;;;;;4.38;1.38;;;;;;;13.95;43.02;98143.53;10470288;28;20111;-70
2023/06/04 05:16:58;;;;;;;7.60;1.30;;;;;;;14.28;41.86;98149.00;10470376;28;20083;-70
2023/06/04 05:22:20;;;;;;;3.92;1.20;;;;;;;14.67;41.10;98154.84;10484019;28;20071;-70
2023/06/04 05:27:41;;;;;;;5.65;1.25;;;;;;;15.10;40.63;98146.75;10469988;28;20119;-70
2023/06/04 05:33:05;;;;;;;3.77;1.23;;;;;;;15.68;39.58;98147.84;10470273;28;20048;-70
2023/06/04 05:38:26;;;;;;;3.70;1.00;;;;;;;15.92;38.64;98149.16;10497574;28;20353;-70
2023/06/04 05:43:50;;;;;;;2.75;1.02;;;;;;;16.24;37.93;98155.75;10470866;28;20127;-70
2023/06/04 05:49:12;;;;;;;5.55;0.82;;;;;;;16.80;37.17;98156.47;10483879;28;20061;-70
2023/06/04 05:54:34;;;;;;;2.45;0.65;;;;;;;17.24;36.68;98160.72;10469373;28;20120;-70
2023/06/04 05:59:55;;;;;;;4.40;0.90;;;;;;;17.63;35.88;98162.53;10483200;28;20045;-70
2023/06/04 06:05:17;;;;;;;3.63;0.88;;;;;;;18.02;34.93;98165.78;10495148;28;20060;-70
2023/06/04 06:10:38;;;;;;;5.85;1.27;;;;;;;18.17;33.84;98183.38;10482735;28;20087;-70
2023/06/04 06:15:59;;;;;;;4.05;1.00;;;;;;;18.28;33.56;98183.19;10496646;28;20507;-70
2023/06/04 06:21:20;;;;;;;3.47;1.02;;;;;;;18.56;33.01;98177.31;10482596;28;20098;-70
2023/06/04 06:26:42;;;;;;;4.85;0.80;;;;;;;19.06;32.10;98186.50;10496089;28;20051;-70
2023/06/04 06:32:05;;;;;;;2.10;0.90;;;;;;;19.36;31.07;98195.50;10496266;28;20044;-71
2023/06/04 06:37:25;;;;;;;3.55;0.88;;;;;;;19.84;31.03;98190.31;10482074;28;20053;-71
2023/06/04 06:42:50;;;;;;;4.93;1.00;;;;;;;20.16;29.78;98202.13;10496046;28;20055;-71
2023/06/04 06:48:11;;;;;;;4.28;1.00;;;;;;;20.42;29.39;98200.25;10482177;28;20064;-71
2023/06/04 06:53:32;;;;;;;2.90;1.10;;;;;;;20.68;28.76;98209.00;10509714;28;20102;-69
2023/06/04 06:58:53;;;;;;;4.10;1.08;;;;;;;20.85;28.39;98219.53;10495686;28;20071;-69
2023/06/04 07:04:13;;;;;;;5.60;1.10;;;;;;;21.03;29.03;98216.59;10495033;28;20072;-71
2023/06/04 07:09:34;;;;;;;2.00;1.13;;;;;;;21.35;28.51;98210.56;10495530;28;20522;-72
2023/06/04 07:14:55;;;;;;;5.47;1.20;;;;;;;21.82;27.64;98214.91;10464077;28;20549;-70
2023/06/04 07:20:17;;;;;;;4.97;1.00;;;;;;;21.87;27.56;98214.34;10474807;28;20044;-71
2023/06/04 07:25:37;;;;;;;5.43;1.02;;;;;;;22.53;27.16;98217.72;10488279;28;20056;-70
2023/06/04 07:30:58;;;;;;;4.00;0.88;;;;;;;22.80;26.29;98209.91;10503215;28;20044;-71
2023/06/04 07:36:20;;;;;;;5.30;1.00;;;;;;;23.27;25.85;98219.69;10474044;28;20041;-70
2023/06/04 07:41:41;;;;;;;2.13;0.70;;;;;;;23.67;25.40;98209.28;10502312;28;20122;-70
2023/06/04 07:47:02;;;;;;;2.67;0.95;;;;;;;23.76;24.68;98210.19;10473859;28;20294;-71
2023/06/04 07:52:24;;;;;;;3.28;1.00;;;;;;;23.09;24.46;98214.25;10501740;28;20108;-71
2023/06/04 07:57:45;;;;;;;2.83;0.82;;;;;;;23.27;24.53;98209.00;10473260;28;20544;-70
2023/06/04 08:03:06;;;;;;;2.20;1.30;;;;;;;23.32;24.26;98212.66;10500825;28;20067;-70
2023/06/04 08:08:27;;;;;;;2.78;0.75;;;;;;;23.38;24.21;98207.13;10486720;28;20075;-71
2023/06/04 08:13:47;;;;;;;2.28;0.90;;;;;;;23.63;24.15;98212.03;10486403;28;20041;-71
2023/06/04 08:19:08;;;;;;;4.53;0.82;;;;;;;24.26;24.03;98209.84;10472329;28;20433;-70
2023/06/04 08:24:29;;;;;;;3.78;0.90;;;;;;;24.61;23.14;98211.31;10485944;28;20044;-70
2023/06/04 08:29:50;;;;;;;5.60;0.90;;;;;;;24.60;23.04;98198.41;10486271;28;20402;-70
2023/06/04 08:35:10;;;;;;;2.00;0.75;;;;;;;24.66;22.28;98218.53;10471859;28;20043;-70
2023/06/04 08:40:31;;;;;;;1.70;0.70;;;;;;;24.26;22.42;98210.56;10485536;28;20466;-71
2023/06/04 08:45:52;;;;;;;3.78;1.20;;;;;;;23.72;22.41;98207.25;10485365;28;20068;-71
2023/06/04 08:51:13;;;;;;;5.07;1.00;;;;;;;23.05;23.18;98206.31;10471232;28;20463;-71
2023/06/04 08:56:35;;;;;;;4.63;0.90;;;;;;;23.46;22.87;98210.19;10470946;28;20437;-71
2023/06/04 09:01:56;;;;;;;1.98;0.70;;;;;;;24.36;22.60;98223.63;10484886;28;20056;-70
2023/06/04 09:07:18;;;;;;;3.17;0.63;;;;;;;25.02;21.63;98209.94;10498469;28;20364;-70
2023/06/04 09:12:44;;;;;;;2.95;0.80;;;;;;;25.09;21.64;98210.75;10470348;28;20044;-70
2023/06/04 09:18:05;;;;;;;3.80;0.60;;;;;;;25.47;21.33;98209.97;10484622;28;20048;-71
2023/06/04 09:23:26;;;;;;;2.67;0.70;;;;;;;25.71;20.96;98213.22;10484032;28;20466;-70
2023/06/04 09:28:47;;;;;;;4.45;0.85;;;;;;;24.52;20.33;98216.13;10483770;28;20036;-70
2023/06/04 09:34:08;;;;;;;3.05;0.70;;;;;;;24.03;20.96;98210.75;10483630;28;20053;-70
2023/06/04 09:39:29;;;;;;;2.80;0.80;;;;;;;23.73;21.69;98216.50;10482682;28;20557;-71
2023/06/04 09:44:50;;;;;;;2.80;0.60;;;;;;;24.40;21.47;98215.13;10483625;28;20368;-71
2023/06/04 09:50:11;;;;;;;2.90;0.80;;;;;;;24.95;20.76;98219.06;10497087;28;20057;-70
2023/06/04 09:55:32;;;;;;;1.80;0.60;;;;;;;25.19;20.16;98215.94;10483519;28;20099;-70
2023/06/04 10:00:54;;;;;;;2.17;0.52;;;;;;;25.40;19.67;98209.16;10497934;28;20044;-71
2023/06/04 10:06:15;;;;;;;3.25;0.50;;;;;;;25.95;19.72;98207.13;10469005;28;20052;-71
2023/06/04 10:11:52;;;;;;;3.50;0.97;;;;;;;25.88;18.91;98203.50;10482901;28;20067;-70
2023/06/04 10:17:13;;;;;;;2.08;0.70;;;;;;;24.77;19.69;98203.03;10482952;28;20041;-71
2023/06/04 10:22:37;;;;;;;4.03;0.60;;;;;;;24.23;20.46;98208.38;10469101;28;20379;-71
2023/06/04 10:27:58;;;;;;;2.30;0.50;;;;;;;24.79;20.20;98197.34;10496346;28;20044;-71
2023/06/04 10:33:20;;;;;;;3.63;0.90;;;;;;;25.19;19.60;98208.09;10482432;28;20501;-71
2023/06/04 10:38:54;;;;;;;4.30;0.60;;;;;;;25.54;19.20;98208.66;10467693;28;20094;-70
2023/06/04 10:44:16;;;;;;;3.72;0.45;;;;;;;25.42;19.46;98200.63;10482466;28;20072;-71
2023/06/04 10:49:37;;;;;;;1.90;0.68;;;;;;;25.27;19.14;98202.50;10499957;28;20040;-71
2023/06/04 10:55:05;;;;;;;1.42;0.60;;;;;;;26.00;18.59;98193.63;10489601;28;20493;-70
2023/06/04 11:00:40;;;;;;;3.67;0.77;;;;;;;26.69;18.18;98192.34;10475904;28;20048;-71
2023/06/04 11:06:01;;;;;;;1.88;0.80;;;;;;;26.75;17.44;98200.28;10489205;28;20079;-71
2023/06/04 11:11:22;;;;;;;2.17;0.80;;;;;;;25.64;17.91;98191.66;10489158;28;20052;-70
2023/06/04 11:16:43;;;;;;;5.05;0.77;;;;;;;24.91;18.97;98196.16;10475485;28;20118;-71
2023/06/04 11:22:11;;;;;;;2.58;0.75;;;;;;;25.12;18.91;98200.84;10488775;28;20044;-71
2023/06/04 11:27:33;;;;;;;5.32;0.73;;;;;;;25.29;18.76;98199.69;10485661;28;20049;-70
2023/06/04 11:33:01;;;;;;;3.92;0.70;;;;;;;25.47;19.04;98187.81;10474740;28;20102;-71
2023/06/04 11:38:22;;;;;;;3.92;0.60;;;;;;;25.47;18.58;98189.97;10488426;28;20070;-71
2023/06/04 11:43:47;;;;;;;3.08;0.60;;;;;;;25.10;18.45;98167.25;10487835;28;20099;-71
2023/06/04 11:49:11;;;;;;;3.63;0.60;;;;;;;25.11;18.95;98179.41;10473933;28;20063;-71
2023/06/04 11:54:38;;;;;;;4.00;0.70;;;;;;;25.39;18.53;98174.16;10488147;28;20045;-71
2023/06/04 11:59:59;;;;;;;3.33;0.50;;;;;;;25.44;18.46;98180.63;10501150;28;20130;-71
2023/06/04 12:05:29;;;;;;;2.65;0.70;;;;;;;25.89;17.94;98178.47;10500921;28;20045;-71
2023/06/04 12:10:50;;;;;;;3.75;0.70;;;;;;;25.62;17.69;98177.34;10487842;28;20428;-71
2023/06/04 12:16:14;;;;;;;2.80;0.60;;;;;;;26.06;17.85;98165.13;10486717;28;20036;-71
2023/06/04 12:21:35;;;;;;;2.67;0.70;;;;;;;25.96;17.35;98163.56;10472671;28;20052;-71
2023/06/04 12:27:06;;;;;;;1.77;0.60;;;;;;;25.56;18.23;98154.38;10501012;28;20524;-71
2023/06/04 12:32:28;;;;;;;3.60;0.60;;;;;;;25.54;17.82;98157.22;10472486;28;20049;-71
2023/06/04 12:37:48;;;;;;;1.35;0.70;;;;;;;25.86;17.45;98154.81;10485860;28;20048;-71
2023/06/04 12:43:09;;;;;;;2.70;0.60;;;;;;;26.15;17.53;98163.78;10499491;28;20393;-71
2023/06/04 12:48:32;;;;;;;3.55;0.73;;;;;;;25.84;17.82;98154.81;10485352;28;20036;-71
2023/06/04 12:53:53;;;;;;;1.13;0.40;;;;;;;26.43;17.46;98149.84;10471366;28;20094;-71
2023/06/04 12:59:14;;;;;;;2.25;0.90;;;;;;;26.17;17.16;98147.38;10484903;28;20052;-71
2023/06/04 13:04:35;;;;;;;1.45;0.50;;;;;;;25.79;17.30;98135.44;10499298;28;20102;-71
2023/06/04 13:09:56;;;;;;;2.58;0.50;;;;;;;25.68;18.56;98126.00;10498272;28;20045;-71
2023/06/04 13:15:18;;;;;;;3.95;0.50;;;;;;;25.17;18.98;98130.94;10484438;28;20482;-71
2023/06/04 13:20:40;;;;;;;4.88;0.60;;;;;;;25.04;18.96;98132.88;10498161;28;20045;-71
2023/06/04 13:26:02;;;;;;;1.67;0.73;;;;;;;25.32;18.56;98131.88;10484169;28;20497;-71
2023/06/04 13:31:23;;;;;;;1.20;0.50;;;;;;;25.03;18.62;98137.13;10469912;28;20036;-71
2023/06/04 13:36:44;;;;;;;2.58;0.60;;;;;;;24.88;18.77;98126.84;10469622;28;20394;-71
2023/06/04 13:42:05;;;;;;;3.45;0.80;;;;;;;24.19;19.77;98123.44;10469383;28;20040;-71
2023/06/04 13:47:26;;;;;;;3.83;0.80;;;;;;;24.11;19.98;98116.84;10483118;28;20071;-71
2023/06/04 13:52:47;;;;;;;2.95;0.63;;;;;;;24.39;20.10;98111.00;10469528;28;20048;-70
2023/06/04 13:58:08;;;;;;;1.90;0.80;;;;;;;24.11;19.72;98111.13;10497030;28;20048;-71
2023/06/04 14:03:29;;;;;;;1.63;0.60;;;;;;;24.24;19.42;98096.44;10469105;28;20059;-71
2023/06/04 14:08:50;;;;;;;3.13;0.52;;;;;;;24.12;19.24;98104.75;10482704;28;20043;-71
2023/06/04 14:14:12;;;;;;;3.63;0.47;;;;;;;23.94;18.96;98096.56;10469145;28;20036;-71
2023/06/04 14:19:35;;;;;;;0.85;0.50;;;;;;;23.86;18.81;98098.53;10482810;28;20551;-71
2023/06/04 14:24:56;;;;;;;1.13;0.43;;;;;;;24.01;18.99;98094.56;10487470;28;20047;-71
2023/06/04 14:30:17;;;;;;;1.67;0.50;;;;;;;23.96;18.44;98101.59;10504774;28;20449;-70
2023/06/04 14:35:38;;;;;;;2.70;0.60;;;;;;;23.73;17.90;98091.13;10505337;28;20106;-71
2023/06/04 14:40:59;;;;;;;2.22;0.60;;;;;;;23.80;17.93;98078.44;10490422;28;20124;-70
2023/06/04 14:46:21;;;;;;;2.95;0.32;;;;;;;23.66;17.76;98084.59;10505031;28;20470;-71
2023/06/04 14:51:42;;;;;;;1.05;0.40;;;;;;;23.54;17.96;98087.84;10490153;28;20040;-71
2023/06/04 14:57:03;;;;;;;1.48;0.60;;;;;;;23.37;17.79;98080.38;10488273;28;20105;-73
2023/06/04 15:02:24;;;;;;;2.65;0.50;;;;;;;23.30;18.07;98075.94;10489311;28;20060;-76
2023/06/04 15:07:45;;;;;;;1.35;0.52;;;;;;;23.29;18.22;98077.34;10474556;28;20589;-77
2023/06/04 15:13:06;;;;;;;1.33;0.50;;;;;;;23.42;18.43;98076.19;10504012;28;20410;-77
2023/06/04 15:18:27;;;;;;;1.25;0.50;;;;;;;23.40;18.45;98070.47;10475189;28;20484;-77
2023/06/04 15:23:49;;;;;;;1.00;0.40;;;;;;;23.28;18.72;98068.06;10474744;28;20083;-77
2023/06/04 15:29:11;;;;;;;1.20;0.50;;;;;;;23.02;18.65;98079.56;10488554;28;20044;-76
2023/06/04 15:34:32;;;;;;;1.60;0.60;;;;;;;22.76;19.34;98064.66;10487016;28;20040;-76
2023/06/04 15:39:52;;;;;;;1.27;0.60;;;;;;;22.75;19.32;98074.59;10488678;28;20067;-76
2023/06/04 15:45:13;;;;;;;2.95;0.55;;;;;;;22.52;19.54;98073.31;10476067;28;20045;-76
2023/06/04 15:50:35;;;;;;;2.03;0.70;;;;;;;22.57;20.05;98069.88;10471286;28;20049;-76
2023/06/04 15:55:56;;;;;;;2.15;0.70;;;;;;;22.69;19.64;98068.78;10456175;28;20557;-76
2023/06/04 16:01:17;;;;;;;1.42;0.60;;;;;;;22.73;19.59;98063.16;10469687;28;20067;-77
2023/06/04 16:06:39;;;;;;;1.92;0.60;;;;;;;22.82;19.37;98057.00;10486271;28;20394;-77
2023/06/04 16:12:00;;;;;;;1.58;0.65;;;;;;;22.85;19.66;98063.50;10484934;28;20040;-76
2023/06/04 16:17:21;;;;;;;2.10;0.50;;;;;;;22.77;19.62;98063.97;10485509;28;20436;-76
2023/06/04 16:22:42;;;;;;;1.30;0.60;;;;;;;22.60;19.64;98064.28;10457529;28;20055;-76
2023/06/04 16:28:03;;;;;;;2.35;0.70;;;;;;;22.41;19.97;98057.41;10499697;28;20039;-76
2023/06/04 16:33:25;;;;;;;1.58;0.63;;;;;;;22.26;20.21;98056.28;10471314;28;20040;-77
2023/06/04 16:38:46;;;;;;;1.98;0.60;;;;;;;22.15;20.27;98052.44;10484632;28;20044;-75
2023/06/04 16:44:07;;;;;;;2.20;0.55;;;;;;;22.19;20.30;98049.72;10481889;28;20044;-76
2023/06/04 16:49:28;;;;;;;2.85;0.73;;;;;;;22.18;20.57;98044.69;10479621;28;20044;-76
2023/06/04 16:54:50;;;;;;;2.65;0.80;;;;;;;22.08;20.76;98045.16;10443822;28;20452;-79
2023/06/04 17:00:11;;;;;;;3.83;0.75;;;;;;;21.92;21.02;98053.22;10443810;28;20100;-75
2023/06/04 17:05:46;;;;;;;2.35;0.57;;;;;;;21.90;21.42;98047.47;10419896;28;20045;-75
2023/06/04 17:11:09;;;;;;;1.67;0.70;;;;;;;21.83;21.39;98048.69;10388625;28;20042;-75
2023/06/04 17:16:30;;;;;;;2.17;0.82;;;;;;;21.83;21.26;98046.59;10401866;28;20744;-74
2023/06/04 17:21:51;;;;;;;1.48;0.50;;;;;;;21.80;21.57;98047.91;10417872;28;20049;-73
2023/06/04 17:27:12;;;;;;;1.38;0.52;;;;;;;21.77;21.58;98040.72;10401418;28;20400;-73
2023/06/04 17:32:33;;;;;;;2.17;0.90;;;;;;;21.75;21.73;98049.19;10440869;28;20045;-75
2023/06/04 17:37:53;;;;;;;2.30;0.95;;;;;;;21.64;21.77;98056.69;10457286;28;20487;-75
2023/06/04 17:43:15;;;;;;;2.88;0.90;;;;;;;21.45;22.11;98059.69;10442196;28;20048;-75
2023/06/04 17:48:36;;;;;;;2.13;0.90;;;;;;;21.33;22.58;98063.59;10442149;28;20065;-75
2023/06/04 17:53:57;;;;;;;3.00;0.77;;;;;;;21.31;22.40;98057.84;10427982;28;20478;-75
2023/06/04 17:59:19;;;;;;;4.03;1.00;;;;;;;21.31;22.37;98052.16;10427272;28;20487;-75
2023/06/04 18:04:40;;;;;;;2.97;0.80;;;;;;;21.22;22.81;98047.59;10427557;28;20060;-72
2023/06/04 18:10:01;;;;;;;2.47;1.08;;;;;;;21.15;22.55;98054.50;10441430;28;20037;-73
2023/06/04 18:15:22;;;;;;;2.45;0.95;;;;;;;21.07;23.17;98054.25;10427675;28;20471;-74
2023/06/04 18:20:43;;;;;;;2.08;0.88;;;;;;;20.95;23.22;98056.72;10427391;28;20056;-74
2023/06/04 18:26:04;;;;;;;3.75;0.90;;;;;;;20.77;23.35;98054.72;10427481;28;20067;-75
2023/06/04 18:31:26;;;;;;;5.05;1.33;;;;;;;20.67;23.29;98050.84;10427261;28;20041;-77
2023/06/04 18:36:53;;;;;;;2.45;1.05;;;;;;;20.57;23.67;98056.91;10440878;28;20068;-72
2023/06/04 18:42:14;;;;;;;3.80;1.30;;;;;;;20.38;23.60;98063.31;10427748;28;20063;-72
2023/06/04 18:47:50;;;;;;;3.35;1.02;;;;;;;20.23;23.86;98065.66;10428828;28;20500;-75
2023/06/04 18:53:11;;;;;;;5.15;1.30;;;;;;;20.05;23.84;98062.19;10454989;28;20143;-76
2023/06/04 18:58:32;;;;;;;4.43;1.38;;;;;;;19.84;24.17;98074.91;10426642;28;20067;-76
2023/06/04 19:03:53;;;;;;;2.65;1.02;;;;;;;19.63;24.18;98076.25;10440193;28;20053;-76
2023/06/04 19:09:13;;;;;;;7.78;1.25;;;;;;;19.49;24.87;98078.53;10427909;28;20045;-76
2023/06/04 19:14:34;;;;;;;3.47;1.10;;;;;;;19.30;24.74;98087.69;10410925;28;20140;-75
2023/06/04 19:19:56;;;;;;;3.25;0.93;;;;;;;19.08;25.31;98085.44;10420915;28;20045;-76
2023/06/04 19:25:16;;;;;;;1.75;0.88;;;;;;;18.88;25.84;98099.50;10406106;28;20043;-75
2023/06/04 19:30:37;;;;;;;2.33;1.10;;;;;;;18.75;26.11;98106.06;10402561;28;20403;-75
2023/06/04 19:35:58;;;;;;;4.78;1.30;;;;;;;18.59;26.30;98106.06;10446738;28;20049;-75
2023/06/04 19:41:20;;;;;;;3.38;1.30;;;;;;;18.44;27.46;98118.16;10433058;28;20104;-74
2023/06/04 19:46:41;;;;;;;3.33;0.88;;;;;;;18.35;28.09;98112.81;10433196;28;20048;-75
2023/06/04 19:52:04;;;;;;;5.18;1.10;;;;;;;18.24;28.82;98109.56;10414897;28;20034;-75
2023/06/04 19:57:24;;;;;;;3.35;1.00;;;;;;;18.14;29.35;98123.22;10411902;28;20033;-75
2023/06/04 20:02:45;;;;;;;5.85;0.70;;;;;;;18.06;30.67;98130.63;10435062;28;20052;-74
2023/06/04 20:08:07;;;;;;;1.90;0.90;;;;;;;17.99;30.20;98127.50;10466665;28;20060;-74
2023/06/04 20:13:28;;;;;;;8.02;2.75;;;;;;;17.88;30.33;98133.34;10431074;28;20032;-74
2023/06/04 20:18:49;;;;;;;2.85;1.52;;;;;;;17.78;31.17;98139.28;10450010;28;20048;-75
2023/06/04 20:24:10;;;;;;;3.33;0.90;;;;;;;17.66;31.56;98135.84;10438389;28;20052;-75
2023/06/04 20:29:31;;;;;;;2.33;0.90;;;;;;;17.57;31.85;98148.88;10417805;28;20095;-75
2023/06/04 20:34:51;;;;;;;4.85;0.80;;;;;;;17.43;32.22;98139.72;10417309;28;20064;-75
2023/06/04 20:40:13;;;;;;;4.70;0.90;;;;;;;17.35;32.44;98151.38;10430749;28;20045;-75
2023/06/04 20:45:33;;;;;;;1.85;0.65;;;;;;;17.21;33.23;98139.41;10430644;28;20045;-75
2023/06/04 20:50:57;;;;;;;2.50;0.95;;;;;;;17.14;33.13;98143.31;10430154;28;20057;-76
2023/06/04 20:56:18;;;;;;;1.63;0.73;;;;;;;17.04;33.83;98146.38;10444337;28;20044;-76
2023/06/04 21:01:39;;;;;;;2.40;1.10;;;;;;;16.99;33.82;98156.00;10429665;28;20060;-75
2023/06/04 21:07:00;;;;;;;6.18;0.77;;;;;;;16.87;34.07;98144.84;10429703;28;20068;-75
2023/06/04 21:12:20;;;;;;;3.72;1.10;;;;;;;16.81;34.84;98146.63;10429649;28;20045;-77
2023/06/04 21:17:41;;;;;;;2.15;0.93;;;;;;;16.70;34.88;98150.31;10415677;28;20060;-75
2023/06/04 21:23:02;;;;;;;2.47;0.90;;;;;;;16.65;35.28;98157.06;10429212;28;20048;-76
2023/06/04 21:28:23;;;;;;;2.60;1.00;;;;;;;16.57;36.27;98160.22;10428971;28;20383;-75
2023/06/04 21:33:43;;;;;;;3.90;1.17;;;;;;;16.54;36.09;98167.09;10429930;28;20037;-76
2023/06/04 21:39:04;;;;;;;6.07;1.20;;;;;;;16.54;36.42;98165.00;10451357;28;20044;-76
2023/06/04 21:44:25;;;;;;;2.95;1.13;;;;;;;16.56;36.24;98167.19;10436649;28;20090;-75
2023/06/04 21:49:46;;;;;;;3.75;0.90;;;;;;;16.57;36.25;98171.47;10462817;28;20092;-75
2023/06/04 21:55:07;;;;;;;3.05;0.93;;;;;;;16.63;36.74;98166.16;10440108;28;20118;-76
2023/06/04 22:00:28;;;;;;;2.95;1.50;;;;;;;16.67;36.85;98174.06;10465199;28;20068;-75
2023/06/04 22:05:48;;;;;;;2.00;1.10;;;;;;;16.66;36.76;98173.34;10498050;28;20049;-75
2023/06/04 22:11:09;;;;;;;2.95;1.23;;;;;;;16.65;37.15;98179.63;10455692;28;20083;-76
2023/06/04 22:16:30;;;;;;;6.00;1.13;;;;;;;16.62;37.34;98173.16;10469005;28;20044;-75
2023/06/04 22:21:51;;;;;;;2.70;1.20;;;;;;;16.54;37.25;98173.47;10469143;28;20044;-75
2023/06/04 22:27:12;;;;;;;6.78;1.30;;;;;;;16.51;37.35;98165.56;10469172;28;20109;-76
2023/06/04 22:32:33;;;;;;;3.45;1.40;;;;;;;16.44;37.96;98167.31;10454741;28;20124;-75
2023/06/04 22:37:54;;;;;;;4.18;1.20;;;;;;;16.36;38.13;98161.25;10468808;28;20127;-75
2023/06/04 22:43:15;;;;;;;6.07;1.40;;;;;;;16.24;37.72;98169.81;10468622;28;20068;-75
2023/06/04 22:48:36;;;;;;;2.35;1.38;;;;;;;16.13;38.70;98159.38;10462642;28;20462;-76
2023/06/04 22:53:57;;;;;;;4.03;1.02;;;;;;;16.09;38.66;98158.44;10476171;28;20115;-75
2023/06/04 22:59:18;;;;;;;3.40;1.27;;;;;;;16.02;39.13;98154.59;10462311;28;20068;-75
2023/06/04 23:04:38;;;;;;;3.65;1.40;;;;;;;16.03;39.25;98147.59;10475501;28;20494;-76
2023/06/04 23:09:59;;;;;;;3.08;1.40;;;;;;;15.90;39.52;98148.28;10461712;28;20099;-75
2023/06/04 23:15:21;;;;;;;2.60;1.17;;;;;;;15.81;40.01;98149.22;10475737;28;20123;-75
2023/06/04 23:20:42;;;;;;;3.13;1.05;;;;;;;15.76;40.18;98153.91;10489362;28;20094;-75
2023/06/04 23:26:03;;;;;;;2.35;1.00;;;;;;;15.71;40.22;98155.03;10461362;28;20112;-75
2023/06/04 23:31:24;;;;;;;3.80;1.15;;;;;;;15.58;40.68;98133.19;10460831;28;20126;-75
2023/06/04 23:36:45;;;;;;;3.35;1.13;;;;;;;15.57;40.72;98140.91;10475040;28;20041;-76
2023/06/04 23:42:06;;;;;;;3.10;1.27;;;;;;;15.57;40.77;98132.47;10460713;28;20072;-76
2023/06/04 23:47:27;;;;;;;2.83;1.10;;;;;;;15.54;40.89;98130.91;10474524;28;20166;-76
2023/06/04 23:52:48;;;;;;;4.05;1.48;;;;;;;15.58;41.00;98125.47;10460482;28;20064;-75
2023/06/04 23:58:08;;;;;;;3.90;1.10;;;;;;;15.64;40.94;98127.94;10459017;28;20055;-76
